createdAt,value
2022-10-09T00:02:21.088Z,16.90
2022-10-09T00:05:27.141Z,16.80
2022-10-09T00:08:30.289Z,16.80
2022-10-09T00:11:34.350Z,16.80
2022-10-09T00:14:37.569Z,16.90
2022-10-09T00:17:41.019Z,17.00
2022-10-09T00:20:47.587Z,17.00
2022-10-09T00:23:51.946Z,16.90
2022-10-09T00:26:55.801Z,16.90
2022-10-09T00:29:59.289Z,16.90
2022-10-09T00:33:02.840Z,16.90
2022-10-09T00:36:09.627Z,16.90
2022-10-09T00:39:12.808Z,16.90
2022-10-09T00:42:16.340Z,17.00
2022-10-09T00:45:22.971Z,17.00
2022-10-09T00:48:26.212Z,17.00
2022-10-09T00:51:32.353Z,17.00
2022-10-09T00:54:38.585Z,17.00
2022-10-09T00:57:43.212Z,17.00
2022-10-09T01:00:46.562Z,16.90
2022-10-09T01:03:49.860Z,16.80
2022-10-09T01:07:13.685Z,16.80
2022-10-09T01:10:27.877Z,16.80
2022-10-09T01:13:37.333Z,16.80
2022-10-09T01:16:45.975Z,16.80
2022-10-09T01:20:04.969Z,16.80
2022-10-09T01:23:26.639Z,16.70
2022-10-09T01:26:46.022Z,16.70
2022-10-09T01:29:51.437Z,16.60
2022-10-09T01:32:56.119Z,16.70
2022-10-09T01:36:00.960Z,16.70
2022-10-09T01:39:06.302Z,16.70
2022-10-09T01:42:13.084Z,16.70
2022-10-09T01:45:16.812Z,16.70
2022-10-09T01:48:26.134Z,16.70
2022-10-09T01:51:34.895Z,16.70
2022-10-09T01:54:51.789Z,16.70
2022-10-09T01:58:02.009Z,16.70
2022-10-09T02:01:08.861Z,16.70
2022-10-09T02:04:14.610Z,16.70
2022-10-09T02:07:18.921Z,16.70
2022-10-09T02:10:23.481Z,16.70
2022-10-09T02:13:28.588Z,16.70
2022-10-09T02:16:38.682Z,16.70
2022-10-09T02:19:48.529Z,16.70
2022-10-09T02:22:52.931Z,16.80
2022-10-09T02:25:56.942Z,16.80
2022-10-09T02:29:01.633Z,16.80
2022-10-09T02:32:04.943Z,16.80
2022-10-09T02:35:09.470Z,16.80
2022-10-09T02:38:12.745Z,16.70
2022-10-09T02:41:16.072Z,16.70
2022-10-09T02:44:20.874Z,16.70
2022-10-09T02:47:24.301Z,16.80
2022-10-09T02:50:27.605Z,16.70
2022-10-09T02:53:31.089Z,16.70
2022-10-09T02:56:38.645Z,16.80
2022-10-09T02:59:43.661Z,16.70
2022-10-09T03:02:47.229Z,16.70
2022-10-09T03:06:00.227Z,16.60
2022-10-09T03:09:03.458Z,16.50
2022-10-09T03:12:07.339Z,16.60
2022-10-09T03:15:12.987Z,16.60
2022-10-09T03:18:16.101Z,16.50
2022-10-09T03:21:21.318Z,16.50
2022-10-09T03:24:24.921Z,16.50
2022-10-09T03:27:28.005Z,16.50
2022-10-09T03:30:32.470Z,16.50
2022-10-09T03:33:36.754Z,16.60
2022-10-09T03:36:40.091Z,16.50
2022-10-09T03:39:43.475Z,16.60
2022-10-09T03:42:47.350Z,16.50
2022-10-09T03:45:52.831Z,16.60
2022-10-09T03:48:56.290Z,16.50
2022-10-09T03:51:59.531Z,16.50
2022-10-09T03:55:03.039Z,16.50
2022-10-09T03:58:06.592Z,16.50
2022-10-09T04:01:11.383Z,16.40
2022-10-09T04:04:14.577Z,16.30
2022-10-09T04:07:17.720Z,16.40
2022-10-09T04:10:21.266Z,16.40
2022-10-09T04:13:24.668Z,16.40
2022-10-09T04:16:29.504Z,16.40
2022-10-09T04:19:32.683Z,16.40
2022-10-09T04:22:35.967Z,16.40
2022-10-09T04:25:39.412Z,16.40
2022-10-09T04:28:42.676Z,16.40
2022-10-09T04:31:47.270Z,16.40
2022-10-09T04:34:50.411Z,16.40
2022-10-09T04:37:53.472Z,16.40
2022-10-09T04:40:58.127Z,16.40
2022-10-09T04:44:01.207Z,16.30
2022-10-09T04:47:10.503Z,16.30
2022-10-09T04:50:15.234Z,16.20
2022-10-09T04:53:18.512Z,16.10
2022-10-09T04:56:22.446Z,16.00
2022-10-09T04:59:25.511Z,16.00
2022-10-09T05:02:29.985Z,15.90
2022-10-09T05:05:33.577Z,15.80
2022-10-09T05:08:37.651Z,15.60
2022-10-09T05:11:42.813Z,15.60
2022-10-09T05:14:46.172Z,15.60
2022-10-09T05:17:50.658Z,15.60
2022-10-09T05:20:53.755Z,15.60
2022-10-09T05:23:57.240Z,15.60
2022-10-09T05:27:00.338Z,15.70
2022-10-09T05:30:03.515Z,15.70
2022-10-09T05:33:07.980Z,15.70
2022-10-09T05:36:11.121Z,15.70
2022-10-09T05:39:14.233Z,15.80
2022-10-09T05:42:17.397Z,15.80
2022-10-09T05:45:20.494Z,15.80
2022-10-09T05:48:25.106Z,15.80
2022-10-09T05:51:30.416Z,15.80
2022-10-09T05:54:33.522Z,15.90
2022-10-09T05:57:36.675Z,16.00
2022-10-09T06:00:39.773Z,16.00
2022-10-09T06:03:44.324Z,16.00
2022-10-09T06:06:48.816Z,16.10
2022-10-09T06:09:52.222Z,16.20
2022-10-09T06:12:55.320Z,16.20
2022-10-09T06:15:58.433Z,16.30
2022-10-09T06:19:03.251Z,16.40
2022-10-09T06:22:06.376Z,16.50
2022-10-09T06:25:10.469Z,16.60
2022-10-09T06:28:13.577Z,16.70
2022-10-09T06:31:19.073Z,16.60
2022-10-09T06:34:23.733Z,16.70
2022-10-09T06:37:26.853Z,16.90
2022-10-09T06:40:29.940Z,17.00
2022-10-09T06:43:33.356Z,16.90
2022-10-09T06:46:40.283Z,16.90
2022-10-09T06:49:44.777Z,17.00
2022-10-09T06:52:48.163Z,17.10
2022-10-09T06:55:54.756Z,17.20
2022-10-09T06:59:00.387Z,17.30
2022-10-09T07:02:03.634Z,17.50
2022-10-09T07:05:09.109Z,17.70
2022-10-09T07:08:12.188Z,17.80
2022-10-09T07:11:20.953Z,17.80
2022-10-09T07:14:24.128Z,17.60
2022-10-09T07:17:28.063Z,17.60
2022-10-09T07:20:32.570Z,17.80
2022-10-09T07:23:37.230Z,17.90
2022-10-09T07:26:42.335Z,18.00
2022-10-09T07:29:45.494Z,18.10
2022-10-09T07:32:48.854Z,17.90
2022-10-09T07:35:57.200Z,18.00
2022-10-09T07:39:00.688Z,18.20
2022-10-09T07:42:04.184Z,18.10
2022-10-09T07:45:08.131Z,18.30
2022-10-09T07:48:11.277Z,18.60
2022-10-09T07:51:18.121Z,18.50
2022-10-09T07:54:21.198Z,18.70
2022-10-09T07:57:24.307Z,18.60
2022-10-09T08:00:27.591Z,18.70
2022-10-09T08:03:30.953Z,18.60
2022-10-09T08:06:36.073Z,18.50
2022-10-09T08:09:39.686Z,18.10
2022-10-09T08:12:42.798Z,17.90
2022-10-09T08:15:46.528Z,17.70
2022-10-09T08:18:50.348Z,17.70
2022-10-09T08:21:54.791Z,17.50
2022-10-09T08:24:58.202Z,17.40
2022-10-09T08:28:01.338Z,17.50
2022-10-09T08:31:12.052Z,17.60
2022-10-09T08:34:15.289Z,17.70
2022-10-09T08:37:19.913Z,17.80
2022-10-09T08:40:30.440Z,17.80
2022-10-09T08:43:36.990Z,17.50
2022-10-09T08:46:53.940Z,17.40
2022-10-09T08:50:01.452Z,17.50
2022-10-09T08:53:13.663Z,17.40
2022-10-09T08:56:16.993Z,17.40
2022-10-09T08:59:20.171Z,17.30
2022-10-09T09:02:41.498Z,17.30
2022-10-09T09:05:50.746Z,17.20
2022-10-09T09:09:01.177Z,17.10
2022-10-09T09:12:10.103Z,17.10
2022-10-09T09:15:29.145Z,17.00
2022-10-09T09:18:42.860Z,17.10
2022-10-09T09:21:51.272Z,16.90
2022-10-09T09:24:57.305Z,16.90
2022-10-09T09:28:12.520Z,16.80
2022-10-09T09:31:20.576Z,16.70
2022-10-09T09:34:28.136Z,16.40
2022-10-09T09:37:31.253Z,16.30
2022-10-09T09:40:38.122Z,16.40
2022-10-09T09:43:42.925Z,16.50
2022-10-09T09:46:48.921Z,16.60
2022-10-09T09:49:56.545Z,16.70
2022-10-09T09:53:03.755Z,16.80
2022-10-09T09:56:09.176Z,17.00
2022-10-09T09:59:28.791Z,17.10
2022-10-09T10:02:32.045Z,17.00
2022-10-09T10:05:38.154Z,17.00
2022-10-09T10:08:41.273Z,17.10
2022-10-09T10:11:49.073Z,17.10
2022-10-09T10:14:52.313Z,17.10
2022-10-09T10:18:04.061Z,17.00
2022-10-09T10:21:14.141Z,17.00
2022-10-09T10:24:22.120Z,16.80
2022-10-09T10:27:31.416Z,16.80
2022-10-09T10:30:36.777Z,16.90
2022-10-09T10:33:40.040Z,16.80
2022-10-09T10:36:43.405Z,16.80
2022-10-09T10:39:51.093Z,16.80
2022-10-09T10:43:08.349Z,16.80
2022-10-09T10:46:23.267Z,16.90
2022-10-09T10:49:31.664Z,16.80
2022-10-09T10:52:50.729Z,16.70
2022-10-09T10:56:01.410Z,16.90
2022-10-09T10:59:44.711Z,16.70
2022-10-09T11:03:18.758Z,16.90
2022-10-09T11:06:27.166Z,17.00
2022-10-09T11:09:40.514Z,17.20
2022-10-09T11:12:50.794Z,17.40
2022-10-09T11:16:05.723Z,17.50
2022-10-09T11:19:22.621Z,17.60
2022-10-09T11:22:41.178Z,17.70
2022-10-09T11:25:55.309Z,17.60
2022-10-09T11:29:04.155Z,17.60
2022-10-09T11:32:15.941Z,17.60
2022-10-09T11:35:23.208Z,17.50
2022-10-09T11:38:30.063Z,17.40
2022-10-09T11:41:35.806Z,17.30
2022-10-09T11:44:47.941Z,17.20
2022-10-09T11:48:00.374Z,17.20
2022-10-09T11:51:12.990Z,17.30
2022-10-09T11:54:19.775Z,17.30
2022-10-09T11:57:29.921Z,17.20
2022-10-09T12:00:36.125Z,17.10
2022-10-09T12:03:41.388Z,17.20
2022-10-09T12:06:49.011Z,17.20
2022-10-09T12:10:00.042Z,17.10
2022-10-09T12:13:06.496Z,17.20
2022-10-09T12:16:11.967Z,17.20
2022-10-09T12:19:26.176Z,17.30
2022-10-09T12:22:34.844Z,17.20
2022-10-09T12:25:42.273Z,17.20
2022-10-09T12:28:49.949Z,17.30
2022-10-09T12:31:57.059Z,17.30
2022-10-09T12:35:05.560Z,17.40
2022-10-09T12:38:17.816Z,17.30
2022-10-09T12:41:23.301Z,17.40
2022-10-09T12:44:31.190Z,17.40
2022-10-09T12:47:36.400Z,17.50
2022-10-09T12:50:41.955Z,17.50
2022-10-09T12:53:50.170Z,17.60
2022-10-09T12:56:54.856Z,17.60
2022-10-09T12:59:58.669Z,17.70
2022-10-09T13:03:02.559Z,17.80
2022-10-09T13:06:09.315Z,17.90
2022-10-09T13:09:21.471Z,18.00
2022-10-09T13:12:27.095Z,18.10
2022-10-09T13:15:36.448Z,18.10
2022-10-09T13:18:39.757Z,18.20
2022-10-09T13:21:44.266Z,18.20
2022-10-09T13:24:47.811Z,18.30
2022-10-09T13:27:51.525Z,18.40
2022-10-09T13:30:55.053Z,18.40
2022-10-09T13:33:58.248Z,18.50
2022-10-09T13:37:02.757Z,18.40
2022-10-09T13:40:06.988Z,18.50
2022-10-09T13:43:14.076Z,18.50
2022-10-09T13:46:17.334Z,18.50
2022-10-09T13:49:20.571Z,18.50
2022-10-09T13:52:25.166Z,18.40
2022-10-09T13:55:28.535Z,18.40
2022-10-09T13:58:31.758Z,18.40
2022-10-09T14:01:35.027Z,18.30
2022-10-09T14:04:38.237Z,18.30
2022-10-09T14:07:42.835Z,18.30
2022-10-09T14:10:46.036Z,18.30
2022-10-09T14:13:49.152Z,18.30
2022-10-09T14:16:52.308Z,18.40
2022-10-09T14:19:55.533Z,18.40
2022-10-09T14:23:00.070Z,18.30
2022-10-09T14:26:05.057Z,18.20
2022-10-09T14:29:08.187Z,18.20
2022-10-09T14:32:11.353Z,18.20
2022-10-09T14:35:18.160Z,18.20
2022-10-09T14:38:25.865Z,18.20
2022-10-09T14:41:32.169Z,18.10
2022-10-09T14:44:37.690Z,18.00
2022-10-09T14:47:40.794Z,17.80
2022-10-09T14:50:43.928Z,17.70
2022-10-09T14:53:48.848Z,17.50
2022-10-09T14:56:51.988Z,17.30
2022-10-09T14:59:55.349Z,17.20
2022-10-09T15:02:59.764Z,17.20
2022-10-09T15:06:05.972Z,17.10
2022-10-09T15:09:10.416Z,17.00
2022-10-09T15:12:13.551Z,17.00
2022-10-09T15:15:16.797Z,17.10
2022-10-09T15:18:19.918Z,17.10
2022-10-09T15:21:25.160Z,17.10
2022-10-09T15:24:29.647Z,17.10
2022-10-09T15:27:32.783Z,17.10
2022-10-09T15:30:35.908Z,17.00
2022-10-09T15:33:39.137Z,17.10
2022-10-09T15:36:44.025Z,17.00
2022-10-09T15:39:48.515Z,17.10
2022-10-09T15:42:51.846Z,17.10
2022-10-09T15:46:03.481Z,17.10
2022-10-09T15:49:08.197Z,17.10
2022-10-09T15:52:11.334Z,17.00
2022-10-09T15:55:15.993Z,17.00
2022-10-09T15:58:19.886Z,17.00
2022-10-09T16:01:24.032Z,17.00
2022-10-09T16:04:28.486Z,16.90
2022-10-09T16:07:31.837Z,16.90
2022-10-09T16:10:36.452Z,16.90
2022-10-09T16:13:41.012Z,16.80
2022-10-09T16:16:44.158Z,16.80
2022-10-09T16:19:47.295Z,16.70
2022-10-09T16:22:50.637Z,16.70
2022-10-09T16:26:00.973Z,16.70
2022-10-09T16:29:04.141Z,16.70
2022-10-09T16:32:07.350Z,16.60
2022-10-09T16:35:10.867Z,16.60
2022-10-09T16:38:14.124Z,16.60
2022-10-09T16:41:20.292Z,16.60
2022-10-09T16:44:23.386Z,16.60
2022-10-09T16:47:26.686Z,16.50
2022-10-09T16:50:30.051Z,16.50
2022-10-09T16:53:33.702Z,16.40
2022-10-09T16:56:40.043Z,16.40
2022-10-09T16:59:44.751Z,16.40
2022-10-09T17:02:48.100Z,16.40
2022-10-09T17:05:51.477Z,16.30
2022-10-09T17:08:56.477Z,16.30
2022-10-09T17:12:01.407Z,16.30
2022-10-09T17:15:05.466Z,16.20
2022-10-09T17:18:09.359Z,16.20
2022-10-09T17:21:14.516Z,16.10
2022-10-09T17:24:18.782Z,16.10
2022-10-09T17:27:23.622Z,16.10
2022-10-09T17:30:27.518Z,16.10
2022-10-09T17:33:31.890Z,16.00
2022-10-09T17:36:36.874Z,16.00
2022-10-09T17:39:44.142Z,15.90
2022-10-09T17:42:50.819Z,15.90
2022-10-09T17:45:54.991Z,15.80
2022-10-09T17:48:59.858Z,15.80
2022-10-09T17:52:03.887Z,15.80
2022-10-09T17:55:08.318Z,15.70
2022-10-09T17:58:13.530Z,15.70
2022-10-09T18:01:18.484Z,15.60
2022-10-09T18:04:21.747Z,15.60
2022-10-09T18:07:25.546Z,15.50
2022-10-09T18:10:29.208Z,15.40
2022-10-09T18:13:35.062Z,15.40
2022-10-09T18:16:39.328Z,15.30
2022-10-09T18:19:43.191Z,15.30
2022-10-09T18:22:47.487Z,15.20
2022-10-09T18:25:51.244Z,15.20
2022-10-09T18:28:56.329Z,15.10
2022-10-09T18:32:00.325Z,15.00
2022-10-09T18:35:04.648Z,14.90
2022-10-09T18:38:10.218Z,14.90
2022-10-09T18:41:14.580Z,14.90
2022-10-09T18:44:24.962Z,14.80
2022-10-09T18:47:33.078Z,14.80
2022-10-09T18:50:39.004Z,14.80
2022-10-09T18:53:46.062Z,14.70
2022-10-09T18:56:50.249Z,14.70
2022-10-09T18:59:58.720Z,14.60
2022-10-09T19:03:03.029Z,14.60
2022-10-09T19:06:08.074Z,14.60
2022-10-09T19:09:12.093Z,14.50
2022-10-09T19:12:17.223Z,14.50
2022-10-09T19:15:22.241Z,14.40
2022-10-09T19:18:26.234Z,14.40
2022-10-09T19:21:30.661Z,14.30
2022-10-09T19:24:34.548Z,14.20
2022-10-09T19:27:38.053Z,14.20
2022-10-09T19:30:43.120Z,14.20
2022-10-09T19:33:46.544Z,14.20
2022-10-09T19:36:51.030Z,14.10
2022-10-09T19:39:54.648Z,14.10
2022-10-09T19:42:58.500Z,14.00
2022-10-09T19:46:04.846Z,14.00
2022-10-09T19:49:08.999Z,13.90
2022-10-09T19:52:12.168Z,13.90
2022-10-09T19:55:16.142Z,13.90
2022-10-09T19:58:19.350Z,13.80
2022-10-09T20:01:27.084Z,13.80
2022-10-09T20:04:30.458Z,13.80
2022-10-09T20:07:34.076Z,13.70
2022-10-09T20:10:37.871Z,13.60
2022-10-09T20:13:42.558Z,13.60
2022-10-09T20:16:47.091Z,13.60
2022-10-09T20:19:50.314Z,13.60
2022-10-09T20:22:53.533Z,13.50
2022-10-09T20:26:01.172Z,13.50
2022-10-09T20:29:06.896Z,13.40
2022-10-09T20:32:12.222Z,13.40
2022-10-09T20:35:15.386Z,13.40
2022-10-09T20:38:24.720Z,13.30
2022-10-09T20:41:30.116Z,13.30
2022-10-09T20:44:33.259Z,13.30
2022-10-09T20:47:37.799Z,13.30
2022-10-09T20:50:43.005Z,13.20
2022-10-09T20:53:46.422Z,13.20
2022-10-09T20:56:50.784Z,13.10
2022-10-09T20:59:53.878Z,13.10
2022-10-09T21:02:58.591Z,13.10
2022-10-09T21:06:04.271Z,13.00
2022-10-09T21:09:07.729Z,13.00
2022-10-09T21:12:10.862Z,12.90
2022-10-09T21:15:14.156Z,12.90
2022-10-09T21:18:20.354Z,12.90
2022-10-09T21:21:24.180Z,12.80
2022-10-09T21:24:27.758Z,12.80
2022-10-09T21:27:30.876Z,12.80
2022-10-09T21:30:41.452Z,12.80
2022-10-09T21:33:46.880Z,12.80
2022-10-09T21:37:20.797Z,12.70
2022-10-09T21:40:17.980Z,12.70
2022-10-09T21:43:21.137Z,12.70
2022-10-09T21:46:24.421Z,12.60
2022-10-09T21:49:29.577Z,12.60
2022-10-09T21:52:32.717Z,12.60
2022-10-09T21:55:35.887Z,12.50
2022-10-09T21:58:39.927Z,12.50
2022-10-09T22:01:43.083Z,12.50
2022-10-09T22:04:47.627Z,12.50
2022-10-09T22:07:50.740Z,12.50
2022-10-09T22:10:53.877Z,12.50
2022-10-09T22:13:57.286Z,12.40
2022-10-09T22:17:00.425Z,12.40
2022-10-09T22:20:05.862Z,12.30
2022-10-09T22:23:09.127Z,12.30
2022-10-09T22:26:14.656Z,12.30
2022-10-09T22:29:17.725Z,12.20
2022-10-09T22:32:20.812Z,12.20
2022-10-09T22:35:25.561Z,12.20
2022-10-09T22:38:28.697Z,12.20
2022-10-09T22:41:33.014Z,12.20
2022-10-09T22:44:36.096Z,12.20
2022-10-09T22:47:39.195Z,12.20
2022-10-09T22:50:43.639Z,12.20
2022-10-09T22:53:47.453Z,12.20
2022-10-09T22:56:50.523Z,12.20
2022-10-09T22:59:53.583Z,12.20
2022-10-09T23:02:56.724Z,12.20
2022-10-09T23:06:11.529Z,12.30
2022-10-09T23:09:16.640Z,12.30
2022-10-09T23:12:19.736Z,12.30
2022-10-09T23:15:22.933Z,12.40
2022-10-09T23:18:26.054Z,12.40
2022-10-09T23:21:30.594Z,12.30
2022-10-09T23:24:33.684Z,12.40
2022-10-09T23:27:36.796Z,12.50
2022-10-09T23:30:40.056Z,12.40
2022-10-09T23:33:46.137Z,12.50
2022-10-09T23:36:50.624Z,12.50
2022-10-09T23:39:53.782Z,12.40
2022-10-09T23:42:56.926Z,12.40
2022-10-09T23:46:01.696Z,12.40
2022-10-09T23:49:05.700Z,12.50
2022-10-09T23:52:10.174Z,12.50
2022-10-09T23:55:13.303Z,12.40
2022-10-09T23:58:20.718Z,12.40
